createdAt,value
2018-08-28T00:00:06.168Z,1.50
2018-08-28T00:02:34.670Z,1.80
2018-08-28T00:05:03.416Z,1.50
2018-08-28T00:07:31.935Z,1.80
2018-08-28T00:10:00.371Z,1.90
2018-08-28T00:12:28.763Z,1.90
2018-08-28T00:14:57.291Z,1.70
2018-08-28T00:17:25.666Z,1.80
2018-08-28T00:19:54.117Z,2.00
2018-08-28T00:22:22.530Z,1.50
2018-08-28T00:24:51.139Z,1.77
2018-08-28T00:27:19.811Z,1.80
2018-08-28T00:29:48.222Z,2.00
2018-08-28T00:32:16.638Z,1.80
2018-08-28T00:34:45.106Z,1.60
2018-08-28T00:37:13.487Z,2.10
2018-08-28T00:39:41.839Z,1.87
2018-08-28T00:42:10.208Z,2.00
2018-08-28T00:44:38.671Z,1.87
2018-08-28T00:47:07.095Z,1.80
2018-08-28T00:49:35.551Z,2.00
2018-08-28T00:52:04.062Z,1.70
2018-08-28T00:54:32.251Z,1.80
2018-08-28T00:57:00.754Z,2.00
2018-08-28T00:59:29.247Z,1.97
2018-08-28T01:01:57.998Z,1.83
2018-08-28T01:04:26.345Z,2.00
2018-08-28T01:06:55.155Z,1.70
2018-08-28T01:09:23.461Z,1.83
2018-08-28T01:11:52.335Z,1.93
2018-08-28T01:14:20.739Z,1.80
2018-08-28T01:16:49.182Z,1.73
2018-08-28T01:19:17.651Z,1.70
2018-08-28T01:21:45.966Z,1.90
2018-08-28T01:24:14.322Z,1.70
2018-08-28T01:26:42.787Z,1.80
2018-08-28T01:29:11.164Z,1.60
2018-08-28T01:31:39.596Z,1.60
2018-08-28T01:34:08.022Z,1.70
2018-08-28T01:36:36.478Z,1.90
2018-08-28T01:39:05.578Z,1.60
2018-08-28T01:41:34.221Z,1.80
2018-08-28T01:44:02.612Z,1.63
2018-08-28T01:46:31.006Z,1.70
2018-08-28T01:48:59.515Z,2.00
2018-08-28T01:51:28.171Z,2.03
2018-08-28T01:53:56.541Z,1.80
2018-08-28T01:56:24.891Z,2.00
2018-08-28T01:58:53.334Z,1.80
2018-08-28T02:01:21.719Z,1.63
2018-08-28T02:03:50.087Z,1.70
2018-08-28T02:06:18.483Z,1.90
2018-08-28T02:08:47.133Z,2.00
2018-08-28T02:11:15.863Z,1.70
2018-08-28T02:13:44.312Z,1.80
2018-08-28T02:16:12.935Z,1.80
2018-08-28T02:18:41.488Z,1.60
2018-08-28T02:21:11.807Z,1.80
2018-08-28T02:23:40.304Z,1.90
2018-08-28T02:26:10.611Z,2.00
2018-08-28T02:28:38.927Z,2.00
2018-08-28T02:31:07.470Z,1.80
2018-08-28T02:33:36.105Z,1.70
2018-08-28T02:36:04.638Z,2.10
2018-08-28T02:38:33.242Z,2.07
2018-08-28T02:41:02.011Z,1.80
2018-08-28T02:43:30.620Z,1.60
2018-08-28T02:45:58.974Z,1.90
2018-08-28T02:48:27.742Z,1.63
2018-08-28T02:50:56.363Z,2.00
2018-08-28T02:53:25.064Z,1.73
2018-08-28T02:55:53.379Z,2.37
2018-08-28T02:58:21.927Z,2.03
2018-08-28T03:00:50.413Z,2.20
2018-08-28T03:03:19.028Z,1.80
2018-08-28T03:05:47.331Z,1.63
2018-08-28T03:08:15.969Z,1.67
2018-08-28T03:10:44.719Z,1.80
2018-08-28T03:13:13.546Z,1.80
2018-08-28T03:15:42.428Z,2.07
2018-08-28T03:18:11.004Z,1.70
2018-08-28T03:20:39.630Z,1.70
2018-08-28T03:23:08.514Z,1.90
2018-08-28T03:25:37.311Z,1.73
2018-08-28T03:28:05.971Z,1.87
2018-08-28T03:30:34.807Z,2.03
2018-08-28T03:33:03.210Z,1.90
2018-08-28T03:35:31.565Z,2.10
2018-08-28T03:37:59.923Z,2.13
2018-08-28T03:40:28.343Z,1.60
2018-08-28T03:42:56.650Z,2.00
2018-08-28T03:45:25.095Z,2.00
2018-08-28T03:47:53.442Z,1.70
2018-08-28T03:50:22.254Z,1.80
2018-08-28T03:52:50.644Z,2.03
2018-08-28T03:55:19.571Z,1.97
2018-08-28T03:57:47.954Z,1.80
2018-08-28T04:00:16.237Z,1.90
2018-08-28T04:02:44.558Z,1.97
2018-08-28T04:05:12.988Z,1.87
2018-08-28T04:07:41.610Z,2.17
2018-08-28T04:10:10.200Z,1.90
2018-08-28T04:12:38.627Z,2.00
2018-08-28T04:15:07.203Z,1.90
2018-08-28T04:17:41.880Z,1.90
2018-08-28T04:20:10.330Z,1.80
2018-08-28T04:22:39.112Z,1.73
2018-08-28T04:25:07.543Z,1.93
2018-08-28T04:27:36.279Z,1.50
2018-08-28T04:30:05.109Z,1.90
2018-08-28T04:32:33.615Z,1.93
2018-08-28T04:35:02.343Z,1.90
2018-08-28T04:37:30.954Z,2.00
2018-08-28T04:39:59.787Z,2.03
2018-08-28T04:42:28.171Z,1.73
2018-08-28T04:44:56.846Z,1.73
2018-08-28T04:47:25.631Z,2.10
2018-08-28T04:49:54.655Z,2.07
2018-08-28T04:52:22.918Z,2.03
2018-08-28T04:54:51.616Z,2.00
2018-08-28T04:57:20.302Z,1.67
2018-08-28T04:59:48.990Z,1.90
2018-08-28T05:02:17.818Z,1.93
2018-08-28T05:04:46.214Z,2.03
2018-08-28T05:07:15.051Z,1.83
2018-08-28T05:09:43.653Z,2.00
2018-08-28T05:12:12.055Z,1.80
2018-08-28T05:14:40.719Z,2.20
2018-08-28T05:17:09.072Z,1.97
2018-08-28T05:19:37.608Z,1.87
2018-08-28T05:22:06.147Z,2.10
2018-08-28T05:24:34.779Z,2.20
2018-08-28T05:27:03.539Z,1.70
2018-08-28T05:29:31.937Z,1.77
2018-08-28T05:32:00.354Z,1.80
2018-08-28T05:34:28.835Z,1.90
2018-08-28T05:36:57.258Z,2.00
2018-08-28T05:39:25.955Z,1.93
2018-08-28T05:41:54.418Z,1.97
2018-08-28T05:44:23.235Z,1.90
2018-08-28T05:46:51.854Z,2.07
2018-08-28T05:49:20.413Z,1.73
2018-08-28T05:51:49.107Z,2.00
2018-08-28T05:54:17.910Z,1.87
2018-08-28T05:56:46.265Z,2.07
2018-08-28T05:59:14.881Z,2.00
2018-08-28T06:01:43.313Z,2.10
2018-08-28T06:04:12.130Z,2.10
2018-08-28T06:06:40.837Z,2.23
2018-08-28T06:09:09.271Z,1.80
2018-08-28T06:11:37.811Z,1.90
2018-08-28T06:14:06.558Z,1.70
2018-08-28T06:16:35.268Z,1.93
2018-08-28T06:19:03.671Z,2.03
2018-08-28T06:21:32.054Z,2.07
2018-08-28T06:24:00.413Z,2.20
2018-08-28T06:26:28.941Z,2.00
2018-08-28T06:28:57.235Z,1.80
2018-08-28T06:31:25.576Z,1.60
2018-08-28T06:33:54.504Z,1.83
2018-08-28T06:36:23.139Z,1.77
2018-08-28T06:38:51.719Z,2.00
2018-08-28T06:41:20.061Z,1.73
2018-08-28T06:43:48.799Z,2.10
2018-08-28T06:46:17.091Z,1.87
2018-08-28T06:48:45.486Z,2.10
2018-08-28T06:51:14.866Z,1.77
2018-08-28T06:53:43.365Z,2.10
2018-08-28T06:56:13.761Z,1.90
2018-08-28T06:58:42.274Z,1.93
2018-08-28T07:01:13.799Z,1.80
2018-08-28T07:03:42.281Z,1.90
2018-08-28T07:06:12.690Z,1.80
2018-08-28T07:08:41.227Z,2.13
2018-08-28T07:11:14.228Z,1.80
2018-08-28T07:13:42.600Z,1.90
2018-08-28T07:16:13.110Z,2.30
2018-08-28T07:18:41.518Z,2.03
2018-08-28T07:21:12.234Z,2.10
2018-08-28T07:23:40.501Z,2.07
2018-08-28T07:26:09.022Z,2.23
2018-08-28T07:28:37.354Z,2.30
2018-08-28T07:31:05.729Z,2.90
2018-08-28T07:33:34.416Z,2.57
2018-08-28T07:36:02.825Z,2.40
2018-08-28T07:38:31.547Z,2.50
2018-08-28T07:41:00.014Z,2.13
2018-08-28T07:43:28.233Z,2.50
2018-08-28T07:45:56.875Z,2.27
2018-08-28T07:48:25.495Z,2.30
2018-08-28T07:50:54.119Z,2.33
2018-08-28T07:53:22.897Z,2.40
2018-08-28T07:55:51.218Z,2.20
2018-08-28T07:58:19.652Z,2.40
2018-08-28T08:00:48.458Z,2.30
2018-08-28T08:03:22.337Z,2.80
2018-08-28T08:05:51.809Z,2.60
2018-08-28T08:08:20.502Z,2.40
2018-08-28T08:10:49.002Z,2.87
2018-08-28T08:13:17.740Z,2.47
2018-08-28T08:15:46.358Z,2.40
2018-08-28T08:18:15.135Z,2.20
2018-08-28T08:20:44.111Z,2.27
2018-08-28T08:23:12.507Z,2.30
2018-08-28T08:25:41.456Z,2.30
2018-08-28T08:28:10.148Z,2.20
2018-08-28T08:30:38.695Z,2.10
2018-08-28T08:33:07.291Z,2.20
2018-08-28T08:35:35.591Z,2.30
2018-08-28T08:38:04.198Z,2.30
2018-08-28T08:40:33.006Z,2.30
2018-08-28T08:43:01.488Z,2.90
2018-08-28T08:45:29.903Z,2.50
2018-08-28T08:47:58.542Z,2.80
2018-08-28T08:50:27.743Z,2.70
2018-08-28T08:52:56.131Z,3.30
2018-08-28T08:55:24.863Z,2.87
2018-08-28T08:57:53.550Z,2.80
2018-08-28T09:00:22.236Z,3.03
2018-08-28T09:02:51.027Z,3.10
2018-08-28T09:05:19.714Z,3.00
2018-08-28T09:07:48.046Z,2.97
2018-08-28T09:10:16.855Z,4.40
2018-08-28T09:12:45.266Z,3.50
2018-08-28T09:15:24.051Z,2.63
2018-08-28T09:17:52.349Z,3.40
2018-08-28T09:20:20.770Z,2.90
2018-08-28T09:22:49.191Z,2.43
2018-08-28T09:25:17.884Z,2.10
2018-08-28T09:27:46.486Z,2.10
2018-08-28T09:30:14.851Z,2.60
2018-08-28T09:32:43.195Z,2.53
2018-08-28T09:35:11.715Z,2.50
2018-08-28T09:37:40.052Z,2.57
2018-08-28T09:40:08.753Z,2.03
2018-08-28T09:42:37.378Z,2.20
2018-08-28T09:45:06.170Z,2.40
2018-08-28T09:47:34.466Z,2.20
2018-08-28T09:50:02.882Z,2.20
2018-08-28T09:52:31.294Z,2.07
2018-08-28T09:55:00.207Z,2.30
2018-08-28T09:57:28.994Z,2.30
2018-08-28T09:59:57.725Z,1.83
2018-08-28T10:02:26.463Z,2.40
2018-08-28T10:04:54.938Z,2.33
2018-08-28T10:07:23.198Z,2.20
2018-08-28T10:09:51.655Z,2.20
2018-08-28T10:12:20.015Z,2.20
2018-08-28T10:15:33.807Z,2.00
2018-08-28T10:18:02.202Z,2.00
2018-08-28T10:20:31.053Z,2.37
2018-08-28T10:22:59.820Z,2.07
2018-08-28T10:25:28.387Z,2.00
2018-08-28T10:27:56.779Z,2.07
2018-08-28T10:30:25.719Z,1.80
2018-08-28T10:32:54.124Z,1.97
2018-08-28T10:35:22.769Z,1.95
2018-08-28T10:37:51.440Z,2.07
2018-08-28T10:40:20.256Z,2.20
2018-08-28T10:42:48.807Z,2.17
2018-08-28T10:45:17.291Z,1.85
2018-08-28T10:47:45.744Z,2.05
2018-08-28T10:50:14.368Z,1.90
2018-08-28T10:52:42.808Z,1.75
2018-08-28T10:55:11.462Z,1.87
2018-08-28T10:57:40.112Z,1.80
2018-08-28T11:00:09.051Z,2.00
2018-08-28T11:02:37.733Z,1.80
2018-08-28T11:05:06.151Z,1.90
2018-08-28T11:07:34.526Z,1.85
2018-08-28T11:10:03.355Z,1.67
2018-08-28T11:12:31.931Z,1.60
2018-08-28T11:15:44.613Z,1.50
2018-08-28T11:18:12.936Z,1.30
2018-08-28T11:20:41.384Z,1.40
2018-08-28T11:23:09.861Z,1.37
2018-08-28T11:25:38.494Z,1.20
2018-08-28T11:28:06.882Z,1.10
2018-08-28T11:30:35.464Z,1.17
2018-08-28T11:33:04.091Z,1.10
2018-08-28T11:35:32.914Z,1.07
2018-08-28T11:38:01.270Z,1.35
2018-08-28T11:40:29.738Z,1.20
2018-08-28T11:42:58.028Z,1.32
2018-08-28T11:45:26.747Z,1.20
2018-08-28T11:47:55.188Z,1.32
2018-08-28T11:50:23.803Z,1.10
2018-08-28T11:52:52.249Z,1.17
2018-08-28T11:55:20.763Z,0.98
2018-08-28T11:57:49.159Z,1.25
2018-08-28T12:00:17.464Z,1.20
2018-08-28T12:02:46.363Z,1.30
2018-08-28T12:05:14.806Z,1.02
2018-08-28T12:07:43.272Z,1.20
2018-08-28T12:10:11.740Z,1.10
2018-08-28T12:12:40.263Z,1.00
2018-08-28T12:15:55.803Z,1.07
2018-08-28T12:18:24.178Z,1.17
2018-08-28T12:20:52.955Z,1.22
2018-08-28T12:23:21.539Z,1.20
2018-08-28T12:25:50.226Z,1.20
2018-08-28T12:28:18.692Z,1.10
2018-08-28T12:30:47.065Z,1.10
2018-08-28T12:33:15.778Z,1.00
2018-08-28T12:35:44.578Z,1.15
2018-08-28T12:38:13.120Z,0.90
2018-08-28T12:40:41.507Z,1.00
2018-08-28T12:43:10.155Z,0.95
2018-08-28T12:45:38.787Z,1.10
2018-08-28T12:48:07.239Z,1.00
2018-08-28T12:50:35.679Z,0.90
2018-08-28T12:53:04.027Z,0.90
2018-08-28T12:55:32.792Z,0.98
2018-08-28T12:58:01.480Z,1.17
2018-08-28T13:00:29.908Z,1.00
2018-08-28T13:02:58.229Z,1.00
2018-08-28T13:05:26.741Z,1.00
2018-08-28T13:07:55.605Z,0.80
2018-08-28T13:10:24.089Z,1.10
2018-08-28T13:12:52.443Z,1.00
2018-08-28T13:16:07.342Z,0.95
2018-08-28T13:18:35.723Z,1.15
2018-08-28T13:21:04.109Z,0.90
2018-08-28T13:23:32.766Z,0.90
2018-08-28T13:26:01.221Z,1.00
2018-08-28T13:28:29.383Z,1.10
2018-08-28T13:30:57.994Z,1.10
2018-08-28T13:33:26.796Z,1.00
2018-08-28T13:35:55.414Z,1.10
2018-08-28T13:38:24.110Z,0.80
2018-08-28T13:40:52.573Z,1.10
2018-08-28T13:43:20.991Z,1.00
2018-08-28T13:45:49.435Z,1.02
2018-08-28T13:48:17.891Z,0.90
2018-08-28T13:50:46.283Z,0.90
2018-08-28T13:53:14.751Z,1.10
2018-08-28T13:55:43.705Z,1.10
2018-08-28T13:58:12.364Z,0.90
2018-08-28T14:00:40.815Z,0.88
2018-08-28T14:03:09.127Z,0.85
2018-08-28T14:05:37.439Z,0.95
2018-08-28T14:08:05.884Z,1.10
2018-08-28T14:10:34.184Z,1.00
2018-08-28T14:13:02.552Z,0.90
2018-08-28T14:16:20.436Z,1.00
2018-08-28T14:18:49.047Z,1.10
2018-08-28T14:21:17.464Z,0.90
2018-08-28T14:23:46.035Z,0.98
2018-08-28T14:26:15.856Z,0.90
2018-08-28T14:28:44.231Z,0.90
2018-08-28T14:31:14.023Z,1.02
2018-08-28T14:33:42.464Z,1.00
2018-08-28T14:36:12.278Z,1.00
2018-08-28T14:38:40.890Z,1.10
2018-08-28T14:41:09.585Z,1.20
2018-08-28T14:43:38.252Z,1.40
2018-08-28T14:46:07.140Z,1.20
2018-08-28T14:48:35.886Z,1.30
2018-08-28T14:51:04.609Z,1.05
2018-08-28T14:53:33.271Z,1.20
2018-08-28T14:56:01.601Z,1.62
2018-08-28T14:58:29.972Z,1.30
2018-08-28T15:00:58.628Z,1.35
2018-08-28T15:03:27.015Z,1.10
2018-08-28T15:05:55.786Z,1.20
2018-08-28T15:08:24.398Z,1.15
2018-08-28T15:10:52.951Z,1.40
2018-08-28T15:13:21.711Z,1.10
2018-08-28T15:16:33.335Z,1.20
2018-08-28T15:19:01.867Z,1.20
2018-08-28T15:21:30.578Z,1.30
2018-08-28T15:23:59.228Z,1.90
2018-08-28T15:26:27.615Z,1.25
2018-08-28T15:28:56.019Z,1.47
2018-08-28T15:31:24.407Z,1.30
2018-08-28T15:33:53.036Z,1.90
2018-08-28T15:36:21.820Z,1.30
2018-08-28T15:38:50.219Z,1.22
2018-08-28T15:41:18.669Z,1.22
2018-08-28T15:43:47.388Z,1.30
2018-08-28T15:46:17.092Z,1.30
2018-08-28T15:48:45.383Z,1.20
2018-08-28T15:51:15.187Z,1.30
2018-08-28T15:53:43.540Z,1.17
2018-08-28T15:56:11.927Z,1.40
2018-08-28T15:58:40.474Z,1.10
2018-08-28T16:01:09.223Z,1.77
2018-08-28T16:03:37.832Z,2.70
2018-08-28T16:06:06.605Z,2.52
2018-08-28T16:08:35.044Z,1.50
2018-08-28T16:11:03.410Z,1.30
2018-08-28T16:13:32.153Z,1.40
2018-08-28T16:16:44.225Z,1.32
2018-08-28T16:19:12.791Z,4.33
2018-08-28T16:21:57.870Z,3.90
2018-08-28T16:24:26.610Z,2.50
2018-08-28T16:26:55.476Z,1.50
2018-08-28T16:29:23.880Z,1.40
2018-08-28T16:31:52.391Z,1.45
2018-08-28T16:34:20.748Z,1.30
2018-08-28T16:36:49.156Z,1.27
2018-08-28T16:39:17.514Z,1.22
2018-08-28T16:41:45.928Z,1.30
2018-08-28T16:44:14.305Z,1.27
2018-08-28T16:46:42.839Z,1.50
2018-08-28T16:49:11.250Z,1.47
2018-08-28T16:51:39.747Z,1.20
2018-08-28T16:54:08.280Z,1.40
2018-08-28T16:56:36.892Z,1.37
2018-08-28T16:59:05.582Z,1.27
2018-08-28T17:01:34.275Z,1.40
2018-08-28T17:04:02.736Z,1.17
2018-08-28T17:06:31.366Z,1.40
2018-08-28T17:08:59.834Z,1.37
2018-08-28T17:11:28.230Z,1.60
2018-08-28T17:13:56.710Z,1.52
2018-08-28T17:16:59.582Z,1.37
2018-08-28T17:19:28.044Z,1.32
2018-08-28T17:21:56.470Z,1.37
2018-08-28T17:24:25.235Z,1.45
2018-08-28T17:26:53.979Z,1.45
2018-08-28T17:29:22.940Z,1.30
2018-08-28T17:31:51.812Z,1.40
2018-08-28T17:34:20.200Z,1.30
2018-08-28T17:36:49.148Z,1.40
2018-08-28T17:39:17.955Z,1.35
2018-08-28T17:41:46.597Z,1.40
2018-08-28T17:44:15.439Z,1.30
2018-08-28T17:46:44.104Z,1.30
2018-08-28T17:49:13.822Z,1.30
2018-08-28T17:51:42.917Z,1.40
2018-08-28T17:54:11.747Z,1.20
2018-08-28T17:56:41.191Z,1.52
2018-08-28T17:59:10.462Z,1.40
2018-08-28T18:01:39.518Z,1.62
2018-08-28T18:04:09.235Z,1.30
2018-08-28T18:06:38.249Z,1.50
2018-08-28T18:09:07.591Z,1.60
2018-08-28T18:11:36.713Z,1.30
2018-08-28T18:14:06.982Z,1.45
2018-08-28T18:17:09.149Z,1.32
2018-08-28T18:19:38.540Z,1.70
2018-08-28T18:22:07.740Z,1.42
2018-08-28T18:24:37.787Z,1.65
2018-08-28T18:27:07.593Z,1.45
2018-08-28T18:29:37.435Z,1.32
2018-08-28T18:32:06.687Z,1.70
2018-08-28T18:34:36.078Z,1.57
2018-08-28T18:37:05.358Z,1.42
2018-08-28T18:39:35.590Z,1.20
2018-08-28T18:42:05.523Z,1.50
2018-08-28T18:44:35.587Z,1.47
2018-08-28T18:47:05.011Z,1.30
2018-08-28T18:49:34.717Z,1.55
2018-08-28T18:52:04.019Z,1.30
2018-08-28T18:54:33.500Z,1.35
2018-08-28T18:57:03.293Z,1.32
2018-08-28T18:59:33.184Z,1.40
2018-08-28T19:02:02.524Z,1.42
2018-08-28T19:04:31.967Z,1.30
2018-08-28T19:07:01.185Z,1.45
2018-08-28T19:09:31.000Z,1.40
2018-08-28T19:12:01.401Z,1.45
2018-08-28T19:15:03.897Z,1.30
2018-08-28T19:17:34.025Z,1.30
2018-08-28T19:20:03.911Z,1.30
2018-08-28T19:22:33.250Z,1.42
2018-08-28T19:25:02.458Z,1.40
2018-08-28T19:27:32.556Z,1.40
2018-08-28T19:30:01.773Z,1.50
2018-08-28T19:32:31.092Z,1.50
2018-08-28T19:35:01.196Z,1.62
2018-08-28T19:37:30.502Z,1.50
2018-08-28T19:39:59.834Z,1.55
2018-08-28T19:42:29.103Z,1.50
2018-08-28T19:44:58.388Z,1.30
2018-08-28T19:47:27.571Z,1.45
2018-08-28T19:49:56.868Z,1.32
2018-08-28T19:52:26.014Z,1.55
2018-08-28T19:54:55.336Z,1.80
2018-08-28T19:57:25.026Z,1.40
2018-08-28T19:59:54.253Z,1.50
2018-08-28T20:02:24.324Z,1.40
2018-08-28T20:04:53.608Z,1.27
2018-08-28T20:07:23.874Z,1.40
2018-08-28T20:09:53.966Z,1.40
2018-08-28T20:12:23.916Z,1.20
2018-08-28T20:15:23.470Z,1.40
2018-08-28T20:17:53.028Z,1.60
2018-08-28T20:20:23.414Z,1.60
2018-08-28T20:22:52.920Z,1.50
2018-08-28T20:25:44.114Z,1.30
2018-08-28T20:28:24.042Z,1.40
2018-08-28T20:30:53.232Z,1.40
2018-08-28T20:33:22.404Z,1.50
2018-08-28T20:35:52.328Z,1.40
2018-08-28T20:38:21.527Z,1.37
2018-08-28T20:40:50.696Z,1.33
2018-08-28T20:43:19.883Z,1.40
2018-08-28T20:45:49.091Z,1.37
2018-08-28T20:48:18.480Z,1.40
2018-08-28T20:50:47.628Z,1.30
2018-08-28T20:53:16.741Z,1.40
2018-08-28T20:55:45.851Z,1.40
2018-08-28T20:58:15.547Z,1.20
2018-08-28T21:00:45.671Z,1.40
2018-08-28T21:03:14.807Z,1.10
2018-08-28T21:05:44.368Z,1.50
2018-08-28T21:08:13.699Z,1.50
2018-08-28T21:10:42.779Z,1.40
2018-08-28T21:13:11.628Z,1.40
2018-08-28T21:19:11.895Z,1.33
2018-08-28T21:21:40.701Z,1.30
2018-08-28T21:24:09.080Z,1.37
2018-08-28T21:26:37.683Z,1.40
2018-08-28T21:29:06.209Z,1.30
2018-08-28T21:31:34.582Z,1.33
2018-08-28T21:34:03.167Z,1.40
2018-08-28T21:36:31.630Z,1.20
2018-08-28T21:38:59.999Z,1.20
2018-08-28T21:41:28.347Z,1.23
2018-08-28T21:43:57.035Z,1.17
2018-08-28T21:46:25.667Z,1.30
2018-08-28T21:48:54.367Z,1.13
2018-08-28T21:51:22.968Z,1.27
2018-08-28T21:53:51.811Z,1.33
2018-08-28T21:56:20.298Z,1.00
2018-08-28T21:58:48.667Z,1.20
2018-08-28T22:01:17.474Z,1.30
2018-08-28T22:03:46.142Z,1.20
2018-08-28T22:06:20.120Z,1.30
2018-08-28T22:08:48.838Z,1.10
2018-08-28T22:11:18.989Z,1.10
2018-08-28T22:13:47.461Z,1.23
2018-08-28T22:16:17.231Z,1.10
2018-08-28T22:18:45.964Z,1.40
2018-08-28T22:21:15.927Z,1.13
2018-08-28T22:23:44.390Z,1.47
2018-08-28T22:26:13.228Z,1.20
2018-08-28T22:28:41.665Z,1.30
2018-08-28T22:31:10.319Z,1.10
2018-08-28T22:33:39.113Z,1.20
2018-08-28T22:36:07.938Z,1.17
2018-08-28T22:38:36.795Z,1.17
2018-08-28T22:41:05.221Z,1.10
2018-08-28T22:43:33.494Z,1.10
2018-08-28T22:46:01.783Z,1.20
2018-08-28T22:48:30.415Z,1.20
2018-08-28T22:50:58.900Z,1.10
2018-08-28T22:53:27.635Z,1.10
2018-08-28T22:55:56.222Z,1.03
2018-08-28T22:58:24.798Z,1.10
2018-08-28T23:00:53.093Z,1.17
2018-08-28T23:03:21.547Z,1.00
2018-08-28T23:05:50.324Z,1.03
2018-08-28T23:08:18.791Z,1.10
2018-08-28T23:10:47.094Z,1.00
2018-08-28T23:13:15.870Z,1.07
2018-08-28T23:15:44.672Z,1.13
2018-08-28T23:18:13.136Z,1.17
2018-08-28T23:20:41.579Z,1.20
2018-08-28T23:23:10.410Z,1.20
2018-08-28T23:25:38.835Z,1.30
2018-08-28T23:28:07.320Z,1.10
2018-08-28T23:30:35.680Z,1.10
2018-08-28T23:33:04.195Z,1.30
2018-08-28T23:35:32.928Z,1.20
2018-08-28T23:38:01.379Z,1.00
2018-08-28T23:40:30.041Z,1.10
2018-08-28T23:42:58.431Z,1.20
2018-08-28T23:45:26.732Z,1.27
2018-08-28T23:47:55.311Z,1.13
2018-08-28T23:50:23.830Z,1.20
2018-08-28T23:52:52.671Z,1.00
2018-08-28T23:55:21.187Z,1.23
2018-08-28T23:57:49.915Z,1.27
